Time;durP1;ratioP1;P1;durP2;ratioP2;P2;SDS_P1;SDS_P2;PMS_P1;PMS_P2;Temp;Humidity;BMP_temperature;BMP_pressure;BME280_temperature;BME280_humidity;BME280_pressure;Samples;Min_cycle;Max_cycle;Signal;HPM_P1;HPM_P2
2021/06/07 00:01:20;;;;;;;4.30;3.45;;;13.40;99.90;;;;;;5034262;28;20068;-71
2021/06/07 00:03:48;;;;;;;5.00;3.63;;;13.40;99.90;;;;;;5036266;28;20049;-71
2021/06/07 00:06:15;;;;;;;5.85;3.20;;;13.40;99.90;;;;;;5035348;28;20452;-71
2021/06/07 00:08:41;;;;;;;5.10;3.28;;;13.50;99.90;;;;;;5035674;28;20049;-71
2021/06/07 00:11:06;;;;;;;6.18;3.28;;;13.50;99.90;;;;;;5035810;28;20037;-71
2021/06/07 00:13:35;;;;;;;4.93;3.70;;;13.50;99.90;;;;;;5035387;28;20501;-71
2021/06/07 00:16:01;;;;;;;4.93;3.40;;;13.50;99.90;;;;;;5035835;28;20124;-71
2021/06/07 00:18:28;;;;;;;5.07;3.30;;;13.50;99.90;;;;;;5034998;28;20344;-72
2021/06/07 00:21:19;;;;;;;5.07;3.40;;;13.50;99.90;;;;;;5035261;28;20038;-71
2021/06/07 00:23:46;;;;;;;5.35;3.35;;;13.50;99.80;;;;;;5035325;28;20099;-71
2021/06/07 00:26:12;;;;;;;5.65;3.20;;;13.50;99.80;;;;;;5034670;28;20037;-71
2021/06/07 00:28:37;;;;;;;4.88;3.05;;;13.50;99.70;;;;;;5034777;28;20037;-71
2021/06/07 00:31:10;;;;;;;4.60;3.10;;;13.50;99.90;;;;;;5034907;28;20045;-71
2021/06/07 00:33:37;;;;;;;5.88;4.78;;;13.50;99.90;;;;;;5034903;28;20041;-71
2021/06/07 00:36:05;;;;;;;4.53;3.00;;;13.50;99.80;;;;;;5034732;28;20342;-71
2021/06/07 00:38:31;;;;;;;6.13;3.13;;;13.40;99.70;;;;;;5034907;28;20041;-71
2021/06/07 00:41:01;;;;;;;4.75;3.00;;;13.40;99.60;;;;;;5034665;28;20128;-71
2021/06/07 00:43:26;;;;;;;9.05;3.50;;;13.40;99.30;;;;;;5033646;28;20041;-70
2021/06/07 00:45:52;;;;;;;4.72;3.03;;;13.40;99.30;;;;;;5035329;28;20064;-71
2021/06/07 00:48:18;;;;;;;6.22;3.22;;;13.40;99.40;;;;;;5034965;28;20217;-71
2021/06/07 00:51:10;;;;;;;5.28;3.10;;;13.40;99.40;;;;;;5034080;28;20053;-71
2021/06/07 00:53:37;;;;;;;6.32;3.20;;;13.40;99.40;;;;;;5034341;28;20627;-71
2021/06/07 00:56:07;;;;;;;6.97;2.90;;;13.30;99.50;;;;;;5033278;28;20464;-71
2021/06/07 00:58:46;;;;;;;4.85;2.97;;;13.30;99.50;;;;;;5034258;28;20453;-71
2021/06/07 01:01:14;;;;;;;5.50;3.50;;;13.30;99.40;;;;;;5034440;28;20037;-71
2021/06/07 01:03:41;;;;;;;4.88;2.92;;;13.30;99.40;;;;;;5033248;28;20037;-71
2021/06/07 01:06:09;;;;;;;4.05;2.65;;;13.30;99.50;;;;;;5034850;28;20049;-71
2021/06/07 01:08:35;;;;;;;6.93;2.85;;;13.30;99.50;;;;;;5033928;28;20359;-71
2021/06/07 01:11:01;;;;;;;5.07;2.63;;;13.30;99.40;;;;;;5034389;28;20044;-71
2021/06/07 01:13:27;;;;;;;4.32;3.33;;;13.30;99.40;;;;;;5034051;28;20033;-71
2021/06/07 01:15:54;;;;;;;3.67;2.97;;;13.20;99.40;;;;;;5034134;28;20049;-70
2021/06/07 01:18:23;;;;;;;3.60;3.20;;;13.20;99.50;;;;;;5034600;28;20037;-71
2021/06/07 01:20:51;;;;;;;5.70;3.47;;;13.20;99.50;;;;;;5033385;28;20129;-71
2021/06/07 01:23:17;;;;;;;6.18;3.80;;;13.20;99.40;;;;;;5034127;28;20033;-71
2021/06/07 01:25:45;;;;;;;4.13;3.72;;;13.20;99.40;;;;;;5034419;28;20091;-71
2021/06/07 01:28:14;;;;;;;7.20;3.92;;;13.20;99.40;;;;;;5034555;28;20033;-71
2021/06/07 01:30:43;;;;;;;5.10;3.83;;;13.10;99.30;;;;;;5033458;28;20041;-71
2021/06/07 01:33:11;;;;;;;5.53;3.70;;;13.10;99.40;;;;;;5033916;28;20069;-71
2021/06/07 01:35:38;;;;;;;4.60;3.33;;;13.10;99.50;;;;;;5033694;28;20046;-71
2021/06/07 01:38:06;;;;;;;4.63;3.30;;;13.10;99.50;;;;;;5033637;28;20038;-70
2021/06/07 01:40:36;;;;;;;6.03;3.20;;;13.10;99.40;;;;;;5033294;28;20037;-71
2021/06/07 01:43:02;;;;;;;5.05;3.83;;;13.10;99.40;;;;;;5034184;28;20042;-70
2021/06/07 01:45:29;;;;;;;5.28;3.08;;;13.10;99.40;;;;;;5034198;28;20429;-71
2021/06/07 01:47:58;;;;;;;8.25;4.03;;;13.10;99.50;;;;;;5033575;28;20462;-71
2021/06/07 01:50:24;;;;;;;8.20;3.55;;;13.10;99.50;;;;;;5033283;28;20037;-71
2021/06/07 01:52:50;;;;;;;6.32;3.53;;;13.10;99.60;;;;;;5033515;28;20448;-71
2021/06/07 01:55:22;;;;;;;4.65;3.67;;;13.10;99.70;;;;;;5033540;28;20509;-70
2021/06/07 01:57:50;;;;;;;3.80;3.08;;;13.10;99.70;;;;;;5034011;28;20137;-71
2021/06/07 02:00:22;;;;;;;5.13;3.70;;;13.20;99.70;;;;;;5033177;28;20112;-71
2021/06/07 02:02:49;;;;;;;5.00;3.30;;;13.20;99.70;;;;;;5033864;28;20041;-71
2021/06/07 02:05:19;;;;;;;8.73;3.47;;;13.20;99.70;;;;;;5032159;28;20038;-70
2021/06/07 02:07:50;;;;;;;3.72;3.15;;;13.10;99.80;;;;;;5033470;28;20374;-71
2021/06/07 02:10:17;;;;;;;5.30;3.85;;;13.10;99.80;;;;;;5032868;28;20551;-70
2021/06/07 02:12:44;;;;;;;4.78;3.63;;;13.10;99.60;;;;;;5033248;28;20040;-71
2021/06/07 02:15:11;;;;;;;4.50;3.42;;;13.10;99.70;;;;;;5033166;28;20033;-70
2021/06/07 02:17:38;;;;;;;3.88;3.05;;;13.10;99.70;;;;;;5033573;28;20052;-71
2021/06/07 02:20:10;;;;;;;6.50;3.38;;;13.10;99.70;;;;;;5033082;28;20449;-71
2021/06/07 02:22:38;;;;;;;6.13;3.55;;;13.10;99.60;;;;;;5033422;28;20037;-71
2021/06/07 02:25:06;;;;;;;5.20;3.25;;;13.20;99.70;;;;;;5033056;28;20045;-71
2021/06/07 02:27:33;;;;;;;6.57;3.50;;;13.20;99.70;;;;;;5033251;28;20053;-71
2021/06/07 02:29:59;;;;;;;5.60;3.10;;;13.20;99.70;;;;;;5032795;28;20083;-71
2021/06/07 02:32:25;;;;;;;3.75;3.35;;;13.20;99.60;;;;;;5033234;28;20374;-71
2021/06/07 02:34:51;;;;;;;7.88;3.63;;;13.20;99.60;;;;;;5033174;28;20044;-71
2021/06/07 02:37:17;;;;;;;7.65;3.88;;;13.10;99.50;;;;;;5033344;28;20481;-71
2021/06/07 02:39:42;;;;;;;4.43;3.15;;;13.20;99.60;;;;;;5032965;28;20037;-71
2021/06/07 02:42:09;;;;;;;4.07;2.88;;;13.20;99.70;;;;;;5033584;28;20045;-71
2021/06/07 02:44:35;;;;;;;3.85;3.35;;;13.20;99.60;;;;;;5033541;28;20044;-71
2021/06/07 02:47:01;;;;;;;3.80;2.78;;;13.20;99.70;;;;;;5033124;28;20037;-71
2021/06/07 02:49:27;;;;;;;6.43;3.28;;;13.20;99.80;;;;;;5035968;28;20056;-71
2021/06/07 02:51:53;;;;;;;5.47;3.17;;;13.20;99.80;;;;;;5036724;28;20037;-71
2021/06/07 02:54:19;;;;;;;5.63;3.17;;;13.20;99.80;;;;;;5037250;28;20132;-71
2021/06/07 02:56:44;;;;;;;5.68;2.78;;;13.20;99.70;;;;;;5036729;28;20529;-71
2021/06/07 02:59:11;;;;;;;4.60;3.50;;;13.20;99.70;;;;;;5036244;28;20037;-71
2021/06/07 03:01:36;;;;;;;5.10;2.92;;;13.30;99.70;;;;;;5037066;28;20359;-71
2021/06/07 03:04:02;;;;;;;5.88;3.65;;;13.30;99.60;;;;;;5036458;28;20037;-71
2021/06/07 03:06:28;;;;;;;5.60;3.50;;;13.30;99.60;;;;;;5036873;28;20041;-71
2021/06/07 03:08:53;;;;;;;5.13;3.03;;;13.30;99.60;;;;;;5036801;28;20087;-71
2021/06/07 03:11:19;;;;;;;6.47;3.50;;;13.30;99.50;;;;;;5036327;28;20037;-71
2021/06/07 03:13:45;;;;;;;6.10;3.53;;;13.30;99.30;;;;;;5036348;28;20038;-71
2021/06/07 03:16:11;;;;;;;8.48;3.38;;;13.30;99.20;;;;;;5036680;28;20087;-71
2021/06/07 03:18:38;;;;;;;4.55;3.30;;;13.30;99.20;;;;;;5036400;28;20041;-71
2021/06/07 03:21:04;;;;;;;3.50;3.20;;;13.30;99.30;;;;;;5035137;28;20411;-71
2021/06/07 03:23:36;;;;;;;4.28;2.95;;;13.30;99.30;;;;;;5036372;28;20072;-71
2021/06/07 03:26:03;;;;;;;4.68;3.28;;;13.30;99.60;;;;;;5036284;28;20060;-71
2021/06/07 03:28:29;;;;;;;5.40;3.15;;;13.30;99.50;;;;;;5035854;28;20041;-71
2021/06/07 03:30:56;;;;;;;4.07;2.50;;;13.30;99.50;;;;;;5036051;28;20378;-71
2021/06/07 03:33:23;;;;;;;4.25;2.85;;;13.30;99.40;;;;;;5036469;28;20037;-71
2021/06/07 03:35:52;;;;;;;6.80;3.40;;;13.30;99.40;;;;;;5036466;28;20482;-71
2021/06/07 03:38:18;;;;;;;4.68;2.85;;;13.30;99.50;;;;;;5036588;28;20065;-71
2021/06/07 03:40:46;;;;;;;4.03;3.15;;;13.30;99.50;;;;;;5035454;28;20076;-71
2021/06/07 03:43:13;;;;;;;8.10;3.25;;;13.30;99.50;;;;;;5035734;28;20037;-71
2021/06/07 03:45:39;;;;;;;4.03;2.95;;;13.30;99.50;;;;;;5036441;28;20428;-71
2021/06/07 03:48:06;;;;;;;4.40;2.85;;;13.20;99.50;;;;;;5036287;28;20033;-70
2021/06/07 03:50:33;;;;;;;8.48;3.20;;;13.20;99.50;;;;;;5035553;28;20124;-71
2021/06/07 03:52:58;;;;;;;5.03;3.30;;;13.20;99.70;;;;;;5035620;28;20125;-70
2021/06/07 03:55:27;;;;;;;5.03;3.33;;;13.10;99.70;;;;;;5035586;28;20076;-71
2021/06/07 03:57:54;;;;;;;5.60;3.42;;;13.10;99.70;;;;;;5035955;28;20351;-71
2021/06/07 04:00:23;;;;;;;4.82;3.08;;;13.10;99.80;;;;;;5035092;28;20045;-71
2021/06/07 04:02:49;;;;;;;5.82;3.33;;;13.10;99.90;;;;;;5035378;28;20048;-71
2021/06/07 04:05:15;;;;;;;5.57;3.50;;;13.10;99.90;;;;;;5035787;28;20042;-71
2021/06/07 04:07:42;;;;;;;4.18;3.60;;;13.10;99.90;;;;;;5035377;28;20486;-71
2021/06/07 04:10:13;;;;;;;4.22;3.50;;;13.10;99.90;;;;;;5034191;28;20044;-71
2021/06/07 04:12:39;;;;;;;5.07;3.58;;;13.10;99.90;;;;;;5034397;28;20402;-70
2021/06/07 04:15:07;;;;;;;7.00;3.95;;;13.10;99.90;;;;;;5034620;28;20048;-71
2021/06/07 04:17:33;;;;;;;4.00;3.55;;;13.10;99.90;;;;;;5035960;28;20124;-71
2021/06/07 04:19:58;;;;;;;7.78;3.97;;;13.10;99.90;;;;;;5034912;28;20064;-70
2021/06/07 04:22:24;;;;;;;7.80;4.10;;;13.10;99.90;;;;;;5035110;28;20041;-71
2021/06/07 04:24:50;;;;;;;7.38;4.22;;;13.20;99.90;;;;;;5035242;28;20083;-71
2021/06/07 04:27:16;;;;;;;8.05;4.32;;;13.20;99.90;;;;;;5035224;28;20038;-70
2021/06/07 04:29:43;;;;;;;7.50;4.10;;;13.20;99.90;;;;;;5035017;28;20038;-71
2021/06/07 04:32:09;;;;;;;7.68;4.68;;;13.20;99.90;;;;;;5035650;28;20076;-71
2021/06/07 04:34:35;;;;;;;7.15;4.70;;;13.20;99.90;;;;;;5035097;28;20436;-70
2021/06/07 04:37:03;;;;;;;8.82;4.63;;;13.30;99.90;;;;;;5035772;28;20045;-70
2021/06/07 04:39:29;;;;;;;4.72;4.30;;;13.30;99.90;;;;;;5036144;28;20051;-71
2021/06/07 04:41:54;;;;;;;6.88;4.70;;;13.40;99.90;;;;;;5037595;28;20037;-71
2021/06/07 04:44:20;;;;;;;7.20;4.07;;;13.50;99.90;;;;;;5034833;28;20037;-69
2021/06/07 04:46:46;;;;;;;5.20;4.63;;;13.70;99.90;;;;;;5035058;28;20107;-69
2021/06/07 04:49:12;;;;;;;7.15;4.38;;;13.80;99.90;;;;;;5034125;28;20350;-70
2021/06/07 04:51:38;;;;;;;8.05;4.20;;;13.80;99.70;;;;;;5034461;28;20037;-70
2021/06/07 04:54:04;;;;;;;5.60;4.15;;;13.80;99.50;;;;;;5034266;28;20482;-70
2021/06/07 04:56:29;;;;;;;5.80;4.20;;;13.90;99.60;;;;;;5034316;28;20572;-70
2021/06/07 04:58:55;;;;;;;6.38;4.50;;;13.90;99.60;;;;;;5034535;28;20057;-69
2021/06/07 05:01:21;;;;;;;6.22;4.47;;;13.90;99.60;;;;;;5034113;28;20046;-70
2021/06/07 05:03:47;;;;;;;8.32;4.80;;;14.00;99.50;;;;;;5034241;28;20430;-69
2021/06/07 05:06:13;;;;;;;5.93;4.30;;;14.00;99.30;;;;;;5034209;28;20402;-70
2021/06/07 05:08:39;;;;;;;15.90;4.95;;;13.90;99.30;;;;;;5034248;28;20052;-70
2021/06/07 05:11:05;;;;;;;8.88;4.75;;;13.90;99.40;;;;;;5034254;28;20043;-70
2021/06/07 05:13:31;;;;;;;8.05;5.22;;;13.90;99.50;;;;;;5034613;28;20041;-70
2021/06/07 05:15:57;;;;;;;5.60;4.22;;;14.20;99.50;;;;;;5034139;28;20037;-70
2021/06/07 05:18:23;;;;;;;7.03;4.70;;;14.40;99.10;;;;;;5034241;28;20047;-70
2021/06/07 05:20:49;;;;;;;6.95;4.68;;;14.60;98.80;;;;;;5033979;28;20120;-70
2021/06/07 05:23:16;;;;;;;5.30;4.28;;;15.00;98.10;;;;;;5034250;28;20037;-70
2021/06/07 05:25:43;;;;;;;5.60;4.20;;;15.40;97.50;;;;;;5034085;28;20390;-69
2021/06/07 05:28:11;;;;;;;5.68;4.30;;;15.60;96.90;;;;;;5034506;28;20066;-69
2021/06/07 05:30:38;;;;;;;6.18;3.95;;;15.90;96.40;;;;;;5033611;28;20413;-70
2021/06/07 05:33:04;;;;;;;9.10;4.80;;;16.20;96.10;;;;;;5033672;28;20095;-70
2021/06/07 05:35:32;;;;;;;10.82;4.32;;;16.40;95.70;;;;;;5034293;28;20034;-70
2021/06/07 05:37:58;;;;;;;5.50;4.13;;;16.70;94.80;;;;;;5033689;28;20048;-70
2021/06/07 05:40:26;;;;;;;5.45;3.80;;;16.90;94.80;;;;;;5033966;28;20033;-70
2021/06/07 05:42:52;;;;;;;4.65;4.10;;;17.10;94.90;;;;;;5033562;28;20083;-70
2021/06/07 05:45:19;;;;;;;4.93;3.40;;;17.30;94.50;;;;;;5034302;28;20047;-70
2021/06/07 05:47:46;;;;;;;5.85;3.80;;;17.60;93.70;;;;;;5033513;28;20485;-70
2021/06/07 05:50:15;;;;;;;7.78;3.90;;;17.60;93.40;;;;;;5033128;28;20044;-70
2021/06/07 05:52:47;;;;;;;7.90;3.88;;;17.80;93.10;;;;;;5033952;28;20041;-70
2021/06/07 05:55:23;;;;;;;5.22;3.08;;;17.90;93.00;;;;;;5034207;28;20041;-70
2021/06/07 05:57:51;;;;;;;5.28;3.55;;;18.10;92.50;;;;;;5033833;28;20490;-70
2021/06/07 06:00:19;;;;;;;8.88;2.70;;;18.20;92.00;;;;;;5033228;28;20069;-70
2021/06/07 06:02:46;;;;;;;5.18;3.05;;;18.40;91.50;;;;;;5033881;28;20084;-70
2021/06/07 06:05:12;;;;;;;6.88;2.95;;;18.40;91.10;;;;;;5032814;28;20041;-70
2021/06/07 06:07:38;;;;;;;4.70;3.42;;;18.70;90.50;;;;;;5032407;28;20045;-70
2021/06/07 06:10:05;;;;;;;6.80;4.20;;;18.70;90.40;;;;;;5033012;28;20389;-70
2021/06/07 06:12:31;;;;;;;4.45;3.20;;;18.90;88.50;;;;;;5033516;28;20045;-70
2021/06/07 06:14:57;;;;;;;6.35;2.55;;;18.80;89.10;;;;;;5033202;28;20033;-70
2021/06/07 06:17:23;;;;;;;5.43;2.75;;;18.90;88.80;;;;;;5033536;28;20124;-70
2021/06/07 06:19:49;;;;;;;4.70;2.85;;;19.10;88.30;;;;;;5032835;28;20042;-70
2021/06/07 06:22:15;;;;;;;5.43;3.10;;;18.90;86.50;;;;;;5034086;28;20041;-71
2021/06/07 06:24:40;;;;;;;6.93;2.65;;;18.70;87.20;;;;;;5037602;28;20493;-70
2021/06/07 06:27:08;;;;;;;5.20;2.88;;;19.10;86.10;;;;;;5037019;28;20041;-70
2021/06/07 06:29:35;;;;;;;4.32;2.75;;;19.00;85.20;;;;;;5035678;28;20034;-70
2021/06/07 06:32:00;;;;;;;3.05;2.10;;;19.50;87.00;;;;;;5037513;28;20388;-70
2021/06/07 06:34:26;;;;;;;4.70;2.03;;;19.70;85.60;;;;;;5037285;28;20112;-70
2021/06/07 06:36:52;;;;;;;8.35;2.80;;;19.80;85.30;;;;;;5036958;28;20033;-70
2021/06/07 06:39:17;;;;;;;3.58;1.83;;;20.00;84.10;;;;;;5036993;28;20076;-70
2021/06/07 06:41:43;;;;;;;4.20;1.90;;;19.90;83.50;;;;;;5037077;28;20037;-70
2021/06/07 06:44:09;;;;;;;2.95;1.85;;;20.30;81.90;;;;;;5036985;28;20076;-70
2021/06/07 06:46:35;;;;;;;5.82;1.88;;;20.60;81.90;;;;;;5037293;28;20046;-70
2021/06/07 06:49:02;;;;;;;6.30;2.00;;;20.70;80.80;;;;;;5036540;28;20496;-71
2021/06/07 06:51:29;;;;;;;5.10;1.83;;;20.50;80.70;;;;;;5037059;28;20045;-70
2021/06/07 06:53:54;;;;;;;5.88;2.30;;;20.60;81.30;;;;;;5037171;28;20408;-70
2021/06/07 06:56:20;;;;;;;4.40;1.77;;;20.70;79.50;;;;;;5036644;28;20128;-70
2021/06/07 06:58:46;;;;;;;3.20;2.25;;;20.70;80.10;;;;;;5036484;28;20100;-70
2021/06/07 07:01:14;;;;;;;4.18;2.47;;;21.00;80.70;;;;;;5036565;28;20040;-70
2021/06/07 07:03:40;;;;;;;4.25;2.05;;;20.80;78.90;;;;;;5036698;28;20494;-70
2021/06/07 07:06:06;;;;;;;3.10;2.33;;;21.20;80.00;;;;;;5036505;28;20473;-70
2021/06/07 07:08:33;;;;;;;3.83;2.25;;;21.50;79.20;;;;;;5036208;28;20111;-70
2021/06/07 07:10:58;;;;;;;4.70;2.50;;;21.40;78.90;;;;;;5036548;28;20458;-70
2021/06/07 07:13:24;;;;;;;7.90;3.28;;;21.00;78.00;;;;;;5036698;28;20038;-70
2021/06/07 07:15:50;;;;;;;3.90;2.60;;;20.80;77.10;;;;;;5036977;28;20091;-70
2021/06/07 07:18:17;;;;;;;4.93;2.42;;;20.80;77.80;;;;;;5036255;28;20049;-70
2021/06/07 07:20:43;;;;;;;4.63;2.58;;;20.90;78.80;;;;;;5035815;28;20038;-70
2021/06/07 07:23:09;;;;;;;3.35;2.00;;;21.40;80.10;;;;;;5036879;28;20041;-70
2021/06/07 07:25:36;;;;;;;4.40;2.00;;;21.30;77.30;;;;;;5036275;28;20097;-70
2021/06/07 07:28:05;;;;;;;3.00;1.80;;;21.50;77.00;;;;;;5036392;28;20041;-70
2021/06/07 07:30:31;;;;;;;5.90;2.40;;;21.90;77.20;;;;;;5036061;28;20386;-70
2021/06/07 07:32:58;;;;;;;2.90;2.00;;;22.00;76.30;;;;;;5036640;28;20088;-70
2021/06/07 07:35:25;;;;;;;3.17;2.10;;;22.30;77.50;;;;;;5035395;28;20045;-70
2021/06/07 07:37:52;;;;;;;5.72;2.30;;;22.40;75.90;;;;;;5035930;28;20064;-70
2021/06/07 07:40:21;;;;;;;3.75;1.90;;;22.10;75.50;;;;;;5035707;28;20123;-71
2021/06/07 07:42:48;;;;;;;2.83;1.65;;;21.90;74.10;;;;;;5035775;28;20041;-70
2021/06/07 07:45:16;;;;;;;3.00;1.58;;;22.10;74.40;;;;;;5036121;28;20038;-71
2021/06/07 07:47:42;;;;;;;3.17;1.80;;;22.30;72.80;;;;;;5036346;28;20049;-70
2021/06/07 07:50:11;;;;;;;4.25;1.45;;;22.20;73.10;;;;;;5035446;28;20409;-70
2021/06/07 07:52:41;;;;;;;2.83;1.17;;;21.70;74.50;;;;;;5035800;28;20037;-70
2021/06/07 07:55:10;;;;;;;2.83;2.22;;;22.00;74.30;;;;;;5035858;28;20044;-70
2021/06/07 07:57:36;;;;;;;3.45;1.35;;;22.20;72.80;;;;;;5035974;28;20080;-70
2021/06/07 08:00:05;;;;;;;5.15;1.77;;;22.40;72.10;;;;;;5035181;28;20037;-70
2021/06/07 08:02:31;;;;;;;3.92;1.92;;;22.70;73.30;;;;;;5035449;28;20037;-70
2021/06/07 08:04:57;;;;;;;2.65;1.58;;;22.70;70.40;;;;;;5035473;28;20041;-71
2021/06/07 08:07:22;;;;;;;4.45;1.83;;;22.60;70.80;;;;;;5035482;28;20044;-69
2021/06/07 08:09:49;;;;;;;4.72;1.80;;;22.20;70.80;;;;;;5034117;28;20037;-70
2021/06/07 08:12:15;;;;;;;2.92;1.58;;;22.30;71.20;;;;;;5035721;28;20158;-70
2021/06/07 08:14:41;;;;;;;3.20;1.90;;;21.80;71.50;;;;;;5035565;28;20484;-70
2021/06/07 08:17:06;;;;;;;6.35;2.38;;;22.00;71.60;;;;;;5035147;28;20040;-69
2021/06/07 08:19:32;;;;;;;2.30;1.90;;;22.20;69.60;;;;;;5034952;28;20088;-69
2021/06/07 08:21:58;;;;;;;3.63;1.33;;;22.20;71.70;;;;;;5035160;28;20041;-69
2021/06/07 08:24:24;;;;;;;4.38;2.00;;;22.70;72.40;;;;;;5035212;28;20037;-69
2021/06/07 08:26:50;;;;;;;4.35;1.90;;;22.80;72.10;;;;;;5035080;28;20041;-70
2021/06/07 08:29:15;;;;;;;5.18;1.77;;;22.50;70.70;;;;;;5035185;28;20033;-70
2021/06/07 08:31:41;;;;;;;4.53;1.80;;;22.60;70.10;;;;;;5035506;28;20530;-70
2021/06/07 08:34:07;;;;;;;2.85;2.00;;;22.70;67.80;;;;;;5035614;28;20041;-70
2021/06/07 08:36:34;;;;;;;3.22;1.60;;;22.60;66.20;;;;;;5034946;28;20045;-71
2021/06/07 08:38:59;;;;;;;3.70;1.42;;;22.80;67.50;;;;;;5034365;28;20455;-70
2021/06/07 08:41:25;;;;;;;2.00;1.30;;;22.50;66.30;;;;;;5034712;28;20041;-70
2021/06/07 08:43:52;;;;;;;5.20;1.80;;;22.60;65.00;;;;;;5035367;28;20087;-70
2021/06/07 08:46:18;;;;;;;3.65;1.92;;;22.70;65.70;;;;;;5034382;28;20045;-70
2021/06/07 08:48:43;;;;;;;5.72;2.03;;;22.10;66.50;;;;;;5034193;28;20041;-71
2021/06/07 08:51:10;;;;;;;5.47;1.77;;;22.20;65.30;;;;;;5034376;28;20041;-71
2021/06/07 08:53:36;;;;;;;3.75;1.58;;;22.40;69.00;;;;;;5034900;28;20378;-71
2021/06/07 08:56:02;;;;;;;1.98;1.45;;;21.90;66.70;;;;;;5034350;28;20091;-71
2021/06/07 08:58:28;;;;;;;3.53;1.67;;;22.60;66.90;;;;;;5034671;28;20502;-71
2021/06/07 09:00:54;;;;;;;4.38;2.28;;;22.50;66.40;;;;;;5034402;28;20038;-71
2021/06/07 09:03:21;;;;;;;4.13;2.33;;;22.20;65.70;;;;;;5034381;28;20033;-71
2021/06/07 09:05:56;;;;;;;2.42;1.70;;;22.40;68.80;;;;;;5034294;28;20041;-70
2021/06/07 09:08:28;;;;;;;3.33;1.95;;;22.80;64.90;;;;;;5034286;28;20436;-71
2021/06/07 09:10:54;;;;;;;3.78;2.05;;;23.30;69.20;;;;;;5034326;28;20068;-71
2021/06/07 09:13:22;;;;;;;3.55;1.70;;;23.50;66.40;;;;;;5033842;28;20121;-71
2021/06/07 09:15:53;;;;;;;4.18;2.28;;;22.30;63.70;;;;;;5034057;28;20045;-71
2021/06/07 09:18:28;;;;;;;5.13;2.60;;;22.30;64.40;;;;;;5034069;28;20066;-71
2021/06/07 09:21:04;;;;;;;3.78;2.35;;;21.80;63.40;;;;;;5034111;28;20073;-71
2021/06/07 09:23:48;;;;;;;3.17;1.88;;;22.70;66.50;;;;;;5034357;28;20049;-70
2021/06/07 09:26:34;;;;;;;5.30;2.22;;;22.90;64.90;;;;;;5034237;28;20465;-71
2021/06/07 09:29:20;;;;;;;3.53;2.15;;;23.10;65.90;;;;;;5033584;28;20112;-71
2021/06/07 09:31:51;;;;;;;5.28;2.28;;;23.00;65.40;;;;;;5033860;28;20037;-71
2021/06/07 09:34:31;;;;;;;3.15;1.65;;;22.50;63.80;;;;;;5033785;28;20041;-71
2021/06/07 09:37:11;;;;;;;4.78;1.30;;;22.90;67.00;;;;;;5033634;28;20505;-70
2021/06/07 09:39:39;;;;;;;4.70;2.00;;;22.90;61.20;;;;;;5033277;28;20041;-70
2021/06/07 09:42:08;;;;;;;3.13;1.40;;;22.80;62.70;;;;;;5033612;28;20037;-70
2021/06/07 09:44:43;;;;;;;3.08;1.63;;;22.10;63.00;;;;;;5033770;28;20037;-71
2021/06/07 09:47:17;;;;;;;3.47;1.40;;;21.80;62.90;;;;;;5033755;28;20045;-71
2021/06/07 09:49:50;;;;;;;3.42;1.50;;;22.30;65.60;;;;;;5033446;28;20116;-69
2021/06/07 09:52:23;;;;;;;4.47;1.73;;;22.50;68.30;;;;;;5033929;28;20076;-68
2021/06/07 09:55:28;;;;;;;2.35;1.60;;;22.30;66.50;;;;;;5033591;28;20041;-68
2021/06/07 09:58:02;;;;;;;2.63;1.77;;;22.50;67.30;;;;;;5033258;28;20058;-70
2021/06/07 10:00:47;;;;;;;3.30;2.03;;;22.10;63.30;;;;;;5033257;28;20041;-70
2021/06/07 10:03:39;;;;;;;4.28;2.22;;;22.50;66.00;;;;;;5035371;28;20476;-70
2021/06/07 10:06:19;;;;;;;3.53;2.33;;;22.00;64.30;;;;;;5039152;28;20052;-70
2021/06/07 10:08:47;;;;;;;6.07;2.00;;;21.80;66.10;;;;;;5040555;28;20435;-69
2021/06/07 10:11:21;;;;;;;4.43;2.03;;;21.60;66.30;;;;;;5035812;28;20409;-68
2021/06/07 10:13:48;;;;;;;3.00;1.38;;;22.00;65.90;;;;;;5033253;28;20034;-70
2021/06/07 10:16:13;;;;;;;4.25;1.67;;;22.00;65.40;;;;;;5033557;28;20076;-70
2021/06/07 10:18:41;;;;;;;4.40;1.55;;;21.90;65.40;;;;;;5033505;28;20073;-69
2021/06/07 10:21:10;;;;;;;3.92;1.27;;;22.00;68.10;;;;;;5033082;28;20038;-69
2021/06/07 10:23:37;;;;;;;2.95;1.48;;;22.10;67.10;;;;;;5036109;28;20477;-69
2021/06/07 10:26:07;;;;;;;2.90;1.50;;;21.70;66.30;;;;;;5040428;28;20484;-70
2021/06/07 10:28:41;;;;;;;3.50;1.48;;;21.40;65.80;;;;;;5040195;28;20041;-70
2021/06/07 10:31:18;;;;;;;4.55;1.35;;;21.70;67.40;;;;;;5049639;28;20082;-70
2021/06/07 10:34:03;;;;;;;3.72;1.70;;;21.60;67.10;;;;;;5044841;28;20126;-69
2021/06/07 10:36:36;;;;;;;2.63;1.50;;;21.70;67.50;;;;;;5033748;28;20041;-70
2021/06/07 10:39:18;;;;;;;3.17;1.67;;;21.40;66.00;;;;;;5032167;28;20422;-70
2021/06/07 10:41:48;;;;;;;4.28;1.80;;;21.50;68.30;;;;;;5033013;28;20041;-70
2021/06/07 10:44:14;;;;;;;3.03;1.88;;;21.70;69.10;;;;;;5033024;28;20117;-70
2021/06/07 10:46:42;;;;;;;2.67;1.50;;;21.30;69.40;;;;;;5033622;28;20069;-71
2021/06/07 10:49:32;;;;;;;3.75;2.50;;;21.60;70.50;;;;;;5032807;28;20107;-70
2021/06/07 10:52:16;;;;;;;3.95;2.15;;;21.80;67.80;;;;;;5033078;28;20099;-70
2021/06/07 10:54:54;;;;;;;5.80;2.75;;;21.90;70.50;;;;;;5033340;28;20112;-70
2021/06/07 10:57:25;;;;;;;4.35;2.65;;;21.60;70.10;;;;;;5032916;28;20045;-69
2021/06/07 10:59:53;;;;;;;5.40;2.60;;;21.70;68.10;;;;;;5032526;28;20497;-70
2021/06/07 11:02:20;;;;;;;3.88;2.55;;;21.50;68.10;;;;;;5032741;28;20045;-70
2021/06/07 11:05:04;;;;;;;5.43;2.75;;;21.30;69.50;;;;;;5032849;28;20044;-70
2021/06/07 11:07:30;;;;;;;5.05;2.22;;;21.50;68.10;;;;;;5033264;28;20046;-70
2021/06/07 11:10:10;;;;;;;5.00;2.42;;;21.40;69.70;;;;;;5034863;28;20038;-70
2021/06/07 11:12:37;;;;;;;6.57;2.95;;;21.20;72.20;;;;;;5036410;28;20112;-70
2021/06/07 11:15:21;;;;;;;3.75;2.80;;;21.10;71.40;;;;;;5036527;28;20517;-70
2021/06/07 11:17:51;;;;;;;3.90;2.70;;;21.10;69.50;;;;;;5036104;28;20128;-70
2021/06/07 11:20:35;;;;;;;4.03;2.10;;;21.20;69.10;;;;;;5035826;28;20087;-70
2021/06/07 11:23:09;;;;;;;3.75;1.92;;;21.20;66.90;;;;;;5036463;28;20049;-70
2021/06/07 11:25:44;;;;;;;4.78;2.25;;;21.20;69.30;;;;;;5036592;28;20041;-71
2021/06/07 11:28:28;;;;;;;4.65;2.78;;;21.20;69.60;;;;;;5036483;28;20046;-71
2021/06/07 11:30:55;;;;;;;4.20;1.67;;;21.30;68.20;;;;;;5036741;28;20037;-70
2021/06/07 11:33:21;;;;;;;3.42;2.25;;;21.40;69.40;;;;;;5036051;28;20496;-71
2021/06/07 11:35:47;;;;;;;2.22;1.60;;;21.30;68.00;;;;;;5036449;28;20069;-70
2021/06/07 11:38:35;;;;;;;2.05;1.48;;;21.30;68.10;;;;;;5034675;28;20090;-70
2021/06/07 11:41:04;;;;;;;4.05;1.65;;;21.00;65.10;;;;;;5035736;28;20041;-69
2021/06/07 11:43:51;;;;;;;2.28;1.35;;;20.80;68.10;;;;;;5036581;28;20133;-70
2021/06/07 11:46:31;;;;;;;1.95;1.40;;;21.00;67.90;;;;;;5035960;28;20033;-70
2021/06/07 11:49:17;;;;;;;4.30;1.35;;;21.10;67.30;;;;;;5035772;28;20039;-69
2021/06/07 11:51:45;;;;;;;2.08;1.20;;;21.00;67.70;;;;;;5035744;28;20033;-70
2021/06/07 11:54:27;;;;;;;3.17;1.27;;;20.80;67.60;;;;;;5035626;28;20041;-69
2021/06/07 11:56:52;;;;;;;2.58;1.50;;;21.00;71.30;;;;;;5036002;28;20424;-69
2021/06/07 11:59:31;;;;;;;2.58;1.38;;;20.90;69.40;;;;;;5035508;28;20050;-70
2021/06/07 12:01:57;;;;;;;4.03;1.30;;;21.00;67.20;;;;;;5035836;28;20033;-70
2021/06/07 12:04:24;;;;;;;3.63;1.48;;;21.20;65.90;;;;;;5035586;28;20434;-70
2021/06/07 12:06:49;;;;;;;6.40;1.80;;;21.10;67.20;;;;;;5035677;28;20044;-70
2021/06/07 12:09:19;;;;;;;1.77;1.17;;;21.30;65.30;;;;;;5035038;28;20053;-70
2021/06/07 12:11:45;;;;;;;2.60;1.20;;;21.20;66.70;;;;;;5035877;28;20462;-70
2021/06/07 12:14:11;;;;;;;2.45;1.63;;;21.30;66.60;;;;;;5035785;28;20124;-70
2021/06/07 12:16:40;;;;;;;2.83;1.40;;;21.10;68.70;;;;;;5035166;28;20116;-70
2021/06/07 12:19:10;;;;;;;2.80;1.75;;;21.10;73.30;;;;;;5035384;28;20037;-70
2021/06/07 12:21:36;;;;;;;4.63;2.15;;;21.00;71.40;;;;;;5034945;28;20037;-70
2021/06/07 12:24:11;;;;;;;2.58;1.67;;;21.30;71.00;;;;;;5035503;28;20040;-70
2021/06/07 12:29:35;;;;;;;3.58;2.10;;;21.30;70.70;;;;;;5034922;28;20056;-70
2021/06/07 12:32:03;;;;;;;4.13;2.00;;;21.10;70.70;;;;;;5035390;28;20088;-69
2021/06/07 12:34:29;;;;;;;2.92;2.10;;;21.10;71.70;;;;;;5035296;28;20037;-70
2021/06/07 12:36:55;;;;;;;4.03;1.92;;;21.10;73.00;;;;;;5035176;28;20029;-70
2021/06/07 12:39:21;;;;;;;4.13;1.65;;;21.20;72.20;;;;;;5034709;28;20037;-70
2021/06/07 12:41:47;;;;;;;6.30;2.25;;;21.20;74.50;;;;;;5035325;28;20112;-70
2021/06/07 12:44:13;;;;;;;4.35;2.13;;;21.10;75.40;;;;;;5034657;28;20037;-70
2021/06/07 12:46:49;;;;;;;4.25;1.90;;;20.80;74.00;;;;;;5034762;28;20042;-69
2021/06/07 12:49:26;;;;;;;2.92;2.08;;;21.00;71.50;;;;;;5034412;28;20056;-70
2021/06/07 12:52:04;;;;;;;4.05;2.50;;;21.10;70.80;;;;;;5034523;28;20107;-70
2021/06/07 12:54:31;;;;;;;4.40;2.35;;;21.20;72.10;;;;;;5034889;28;20104;-70
2021/06/07 12:57:01;;;;;;;4.00;2.17;;;21.00;72.70;;;;;;5034539;28;20141;-70
2021/06/07 12:59:32;;;;;;;5.25;2.15;;;21.10;72.70;;;;;;5034107;28;20037;-70